Time;durP1;ratioP1;P1;durP2;ratioP2;P2;SDS_P1;SDS_P2;PMS_P1;PMS_P2;Temp;Humidity;BMP_temperature;BMP_pressure;BME280_temperature;BME280_humidity;BME280_pressure;Samples;Min_cycle;Max_cycle;Signal;HPM_P1;HPM_P2
2022/04/07 00:00:26;;;;;;;4.63;2.00;;;10.30;88.90;;;;;;4954791;28;20509;-50
2022/04/07 00:02:54;;;;;;;2.23;2.03;;;10.20;87.20;;;;;;4947181;28;20493;-50
2022/04/07 00:05:21;;;;;;;2.13;2.03;;;10.20;86.00;;;;;;4957379;28;20498;-49
2022/04/07 00:07:47;;;;;;;4.23;2.00;;;10.10;83.40;;;;;;4958216;28;20600;-49
2022/04/07 00:10:14;;;;;;;10.47;2.27;;;10.00;79.70;;;;;;4951535;28;20923;-49
2022/04/07 00:12:42;;;;;;;2.87;1.63;;;10.00;77.20;;;;;;4950670;28;20862;-50
2022/04/07 00:15:09;;;;;;;2.50;1.50;;;9.90;73.60;;;;;;4955936;28;20465;-49
2022/04/07 00:17:36;;;;;;;2.43;1.80;;;9.90;71.60;;;;;;4950415;28;20471;-49
2022/04/07 00:20:05;;;;;;;1.50;1.40;;;9.90;70.80;;;;;;4954023;28;20543;-49
2022/04/07 00:22:33;;;;;;;2.33;1.60;;;9.80;69.20;;;;;;4960633;28;20469;-49
2022/04/07 00:25:00;;;;;;;2.00;1.80;;;9.80;66.40;;;;;;4939928;28;20494;-49
2022/04/07 00:27:26;;;;;;;7.37;2.50;;;9.70;66.10;;;;;;4952241;29;20514;-49
2022/04/07 00:29:53;;;;;;;2.30;2.10;;;9.70;61.90;;;;;;4949765;28;20512;-49
2022/04/07 00:32:19;;;;;;;2.30;1.90;;;9.70;59.40;;;;;;4949444;28;20995;-50
2022/04/07 00:34:49;;;;;;;4.07;2.07;;;9.70;59.60;;;;;;4957783;28;20554;-49
2022/04/07 00:37:17;;;;;;;2.00;1.90;;;9.70;57.80;;;;;;4953804;28;20461;-49
2022/04/07 00:39:43;;;;;;;4.47;2.00;;;9.60;56.90;;;;;;4945955;28;20487;-49
2022/04/07 00:42:10;;;;;;;4.00;2.00;;;9.60;54.10;;;;;;4951112;29;20549;-49
2022/04/07 00:44:36;;;;;;;2.70;2.23;;;9.60;51.60;;;;;;4957573;28;20508;-50
2022/04/07 00:47:03;;;;;;;8.63;2.80;;;9.50;48.20;;;;;;4958239;28;21034;-49
2022/04/07 00:49:30;;;;;;;3.27;1.80;;;9.50;47.20;;;;;;4944767;28;20553;-50
2022/04/07 00:51:57;;;;;;;2.40;1.83;;;9.50;45.30;;;;;;4944946;28;21166;-50
2022/04/07 00:54:25;;;;;;;2.40;2.13;;;9.40;41.30;;;;;;4955120;28;20517;-50
2022/04/07 00:56:53;;;;;;;7.87;2.17;;;9.50;43.00;;;;;;4949903;28;20565;-49
2022/04/07 00:59:22;;;;;;;5.63;2.37;;;9.50;42.80;;;;;;4951490;28;20561;-50
2022/04/07 01:01:49;;;;;;;4.90;2.37;;;9.40;41.30;;;;;;4950198;28;20546;-49
2022/04/07 01:04:17;;;;;;;3.13;2.30;;;9.40;38.60;;;;;;4947196;28;20901;-49
2022/04/07 01:06:44;;;;;;;4.33;2.40;;;9.40;34.60;;;;;;4947885;28;20554;-50
2022/04/07 01:09:11;;;;;;;7.17;2.30;;;9.40;33.70;;;;;;4950252;28;20525;-50
2022/04/07 01:11:39;;;;;;;2.50;2.00;;;9.40;33.00;;;;;;4959981;28;20498;-49
2022/04/07 01:14:06;;;;;;;3.60;2.50;;;9.40;32.70;;;;;;4951155;28;20948;-49
2022/04/07 01:16:34;;;;;;;5.53;2.27;;;9.40;31.40;;;;;;4947558;28;20488;-50
2022/04/07 01:19:01;;;;;;;7.20;1.90;;;9.40;31.40;;;;;;4952942;28;20461;-50
2022/04/07 01:21:30;;;;;;;2.30;2.13;;;9.40;31.10;;;;;;4952690;28;20518;-50
2022/04/07 01:24:07;;;;;;;3.43;2.60;;;9.50;33.00;;;;;;4950237;28;20468;-50
2022/04/07 01:26:38;;;;;;;5.80;2.87;;;9.50;33.90;;;;;;4956216;28;20486;-50
2022/04/07 01:29:05;;;;;;;3.47;2.47;;;9.40;31.90;;;;;;4954554;28;20574;-50
2022/04/07 01:31:32;;;;;;;2.07;1.97;;;9.40;31.00;;;;;;4951609;28;21000;-50
2022/04/07 01:34:00;;;;;;;7.00;2.80;;;9.40;30.60;;;;;;4953269;28;20520;-50
2022/04/07 01:36:29;;;;;;;5.57;2.97;;;9.40;28.30;;;;;;4960673;28;20466;-50
2022/04/07 01:38:56;;;;;;;2.30;2.20;;;9.40;27.20;;;;;;4950261;28;21004;-50
2022/04/07 01:41:24;;;;;;;6.30;2.90;;;9.40;25.20;;;;;;4954016;28;20581;-50
2022/04/07 01:43:54;;;;;;;3.53;2.73;;;9.30;23.30;;;;;;4955527;28;20462;-50
2022/04/07 01:46:23;;;;;;;3.70;2.80;;;9.30;24.30;;;;;;4956681;28;20493;-49
2022/04/07 01:48:51;;;;;;;2.57;2.37;;;9.40;24.50;;;;;;4957640;28;20597;-49
2022/04/07 01:51:18;;;;;;;4.10;2.40;;;9.30;20.40;;;;;;4954489;29;20505;-50
2022/04/07 01:53:47;;;;;;;2.67;2.43;;;9.30;20.60;;;;;;4957089;28;20552;-49
2022/04/07 01:56:13;;;;;;;2.47;2.30;;;9.30;84.10;;;;;;4962164;28;20511;-49
2022/04/07 01:58:40;;;;;;;3.27;2.60;;;9.30;78.70;;;;;;4945116;28;20546;-49
2022/04/07 02:01:08;;;;;;;3.63;2.60;;;9.40;72.20;;;;;;4950417;28;20497;-49
2022/04/07 02:03:35;;;;;;;4.00;2.57;;;9.40;20.40;;;;;;4954195;28;20569;-49
2022/04/07 02:06:12;;;;;;;7.37;3.13;;;9.40;78.30;;;;;;4956857;28;20843;-49
2022/04/07 02:08:39;;;;;;;6.37;2.70;;;9.40;20.00;;;;;;4958461;28;20576;-50
2022/04/07 02:11:06;;;;;;;3.87;2.90;;;9.40;91.60;;;;;;4945621;28;20554;-49
2022/04/07 02:13:33;;;;;;;5.23;2.97;;;9.40;76.60;;;;;;4943379;29;20981;-50
2022/04/07 02:16:00;;;;;;;10.73;3.47;;;9.40;88.20;;;;;;4943986;29;20550;-49
2022/04/07 02:18:28;;;;;;;4.10;2.77;;;9.50;93.10;;;;;;4939484;29;20535;-49
2022/04/07 02:20:54;;;;;;;4.63;3.20;;;9.50;83.00;;;;;;4955753;28;20497;-50
2022/04/07 02:23:21;;;;;;;4.00;3.23;;;9.50;77.70;;;;;;4948932;28;20530;-49
2022/04/07 02:25:47;;;;;;;3.50;2.90;;;9.60;82.60;;;;;;4944275;29;20479;-50
2022/04/07 02:28:14;;;;;;;3.53;2.93;;;9.50;79.80;;;;;;4939390;29;20570;-49
2022/04/07 02:30:40;;;;;;;5.00;3.10;;;9.60;95.50;;;;;;4951250;29;21071;-49
2022/04/07 02:33:07;;;;;;;5.17;3.67;;;9.60;86.70;;;;;;4947558;29;20502;-50
2022/04/07 02:35:35;;;;;;;5.03;2.70;;;9.60;94.40;;;;;;4949417;28;20570;-50
2022/04/07 02:38:02;;;;;;;5.50;3.60;;;9.60;88.30;;;;;;4965373;28;20528;-50
2022/04/07 02:40:28;;;;;;;3.53;3.13;;;9.60;98.70;;;;;;4953478;29;20557;-49
2022/04/07 02:42:55;;;;;;;6.53;4.10;;;9.60;99.90;;;;;;4946651;29;20479;-49
2022/04/07 02:45:21;;;;;;;5.83;3.30;;;9.60;99.90;;;;;;4950161;29;20479;-50
2022/04/07 02:47:48;;;;;;;7.90;5.33;;;9.50;99.90;;;;;;4948580;29;20584;-49
2022/04/07 02:50:16;;;;;;;4.80;4.07;;;9.40;99.90;;;;;;4947282;29;20598;-50
2022/04/07 02:52:44;;;;;;;5.27;3.77;;;9.40;99.90;;;;;;4940903;29;20477;-50
2022/04/07 02:55:11;;;;;;;6.57;4.00;;;9.40;99.90;;;;;;4952054;28;20915;-50
2022/04/07 02:57:37;;;;;;;5.70;4.33;;;9.40;99.90;;;;;;4958586;28;20450;-49
2022/04/07 03:00:05;;;;;;;5.17;4.23;;;9.30;99.90;;;;;;4952930;28;20499;-49
2022/04/07 03:02:32;;;;;;;4.40;3.50;;;9.40;99.90;;;;;;4946971;28;20537;-49
2022/04/07 03:04:58;;;;;;;4.00;3.80;;;9.30;99.90;;;;;;4952774;29;20447;-49
2022/04/07 03:07:25;;;;;;;8.30;4.27;;;9.30;99.90;;;;;;4955570;28;20481;-49
2022/04/07 03:09:53;;;;;;;6.87;3.90;;;9.30;99.90;;;;;;4949194;28;20489;-49
2022/04/07 03:12:19;;;;;;;4.67;4.17;;;9.30;99.90;;;;;;4952221;28;20454;-50
2022/04/07 03:14:46;;;;;;;4.50;4.20;;;9.30;99.90;;;;;;4957552;28;22362;-49
2022/04/07 03:17:12;;;;;;;4.70;4.30;;;9.30;99.90;;;;;;4952376;28;21056;-50
2022/04/07 03:19:39;;;;;;;6.13;4.57;;;9.20;99.90;;;;;;4956085;28;21023;-49
2022/04/07 03:22:05;;;;;;;5.43;4.13;;;9.10;99.90;;;;;;4962201;28;20985;-49
2022/04/07 03:24:32;;;;;;;5.27;4.67;;;9.10;99.90;;;;;;4954815;28;20553;-49
2022/04/07 03:27:04;;;;;;;5.37;4.53;;;9.10;99.90;;;;;;4953415;28;20518;-50
2022/04/07 03:29:31;;;;;;;6.97;4.50;;;9.00;99.90;;;;;;4951438;28;20487;-49
2022/04/07 03:31:57;;;;;;;4.00;3.67;;;9.00;99.90;;;;;;4939863;29;20483;-49
2022/04/07 03:34:24;;;;;;;9.40;4.40;;;9.00;99.90;;;;;;4942657;29;20538;-49
2022/04/07 03:36:50;;;;;;;4.70;3.70;;;8.90;99.90;;;;;;4936988;29;21064;-49
2022/04/07 03:39:17;;;;;;;14.10;4.83;;;9.00;99.90;;;;;;4945669;29;20561;-50
2022/04/07 03:41:43;;;;;;;5.33;4.53;;;9.00;99.90;;;;;;4956408;28;20494;-50
2022/04/07 03:44:12;;;;;;;6.00;3.80;;;9.00;99.90;;;;;;4941916;29;21022;-50
2022/04/07 03:46:38;;;;;;;4.63;4.13;;;9.00;99.90;;;;;;4953099;29;20453;-50
2022/04/07 03:49:05;;;;;;;7.00;4.50;;;9.00;99.90;;;;;;4939755;29;20569;-50
2022/04/07 03:51:32;;;;;;;5.03;4.60;;;9.00;99.90;;;;;;4970637;28;20580;-50
2022/04/07 03:53:59;;;;;;;7.20;4.80;;;9.00;99.90;;;;;;4948018;28;20451;-49
2022/04/07 03:56:25;;;;;;;4.30;3.93;;;9.00;99.90;;;;;;4936425;29;20459;-50
2022/04/07 03:58:52;;;;;;;8.20;4.40;;;9.10;99.90;;;;;;4954875;28;22324;-50
2022/04/07 04:01:20;;;;;;;4.97;4.00;;;9.10;99.90;;;;;;4941826;29;20925;-48
2022/04/07 04:03:46;;;;;;;6.73;4.57;;;9.20;99.90;;;;;;4952913;29;21039;-49
2022/04/07 04:06:13;;;;;;;8.40;4.30;;;9.20;99.90;;;;;;4946455;28;20533;-50
2022/04/07 04:08:39;;;;;;;6.93;4.50;;;9.30;99.90;;;;;;4941340;29;20573;-49
2022/04/07 04:11:06;;;;;;;4.53;4.13;;;9.30;99.90;;;;;;4936467;29;21077;-49
2022/04/07 04:13:33;;;;;;;11.27;4.00;;;9.40;99.90;;;;;;4952339;28;21023;-50
2022/04/07 04:16:01;;;;;;;6.93;4.17;;;9.40;99.90;;;;;;4959933;28;20456;-49
2022/04/07 04:18:29;;;;;;;6.30;3.83;;;9.50;99.90;;;;;;4952143;29;21031;-50
2022/04/07 04:20:55;;;;;;;6.67;4.30;;;9.40;99.90;;;;;;4946703;28;21018;-50
2022/04/07 04:23:22;;;;;;;3.67;3.20;;;9.40;99.90;;;;;;4943950;28;20479;-50
2022/04/07 04:25:49;;;;;;;4.67;4.27;;;9.50;99.90;;;;;;4935578;29;21065;-50
2022/04/07 04:28:15;;;;;;;6.30;4.73;;;9.50;99.90;;;;;;4945655;28;20586;-49
2022/04/07 04:30:42;;;;;;;6.73;3.63;;;9.50;99.90;;;;;;4945479;28;22453;-54
2022/04/07 04:33:09;;;;;;;3.70;3.50;;;9.60;99.90;;;;;;4949513;28;20557;-55
2022/04/07 04:35:37;;;;;;;3.80;3.50;;;9.60;99.90;;;;;;4951041;28;20459;-54
2022/04/07 04:38:04;;;;;;;4.17;3.80;;;9.60;99.90;;;;;;4954579;28;20866;-49
2022/04/07 04:40:31;;;;;;;4.23;3.80;;;9.60;99.90;;;;;;4949762;28;20483;-49
2022/04/07 04:42:59;;;;;;;4.13;3.70;;;9.60;99.90;;;;;;4962319;28;20865;-50
2022/04/07 04:45:26;;;;;;;4.20;3.90;;;9.60;99.90;;;;;;4950553;28;20470;-49
2022/04/07 04:47:53;;;;;;;4.27;3.93;;;9.60;99.90;;;;;;4944743;28;20561;-50
2022/04/07 04:50:20;;;;;;;4.30;3.70;;;9.70;99.90;;;;;;4940582;28;20521;-49
2022/04/07 04:52:48;;;;;;;3.97;3.67;;;9.70;99.90;;;;;;4940867;28;20546;-50
2022/04/07 04:55:14;;;;;;;4.47;3.80;;;9.80;99.90;;;;;;4938345;28;20499;-51
2022/04/07 04:57:41;;;;;;;7.60;3.87;;;9.70;99.90;;;;;;4939255;28;20562;-50
2022/04/07 05:00:09;;;;;;;6.33;4.10;;;9.80;99.90;;;;;;4942583;28;20545;-50
2022/04/07 05:02:37;;;;;;;5.03;4.57;;;9.80;99.90;;;;;;4950883;28;20598;-50
2022/04/07 05:08:26;;;;;;;4.37;4.10;;;9.80;99.90;;;;;;4946611;28;20505;-51
2022/04/07 05:10:52;;;;;;;3.83;3.33;;;9.80;99.90;;;;;;4949016;28;20573;-51
2022/04/07 05:13:21;;;;;;;4.50;4.10;;;9.80;99.90;;;;;;4944348;28;20471;-51
2022/04/07 05:15:47;;;;;;;4.83;4.30;;;9.80;99.90;;;;;;4946617;28;20553;-51
2022/04/07 05:18:14;;;;;;;7.03;3.43;;;9.80;99.90;;;;;;4950692;28;20498;-53
2022/04/07 05:20:41;;;;;;;4.00;3.63;;;9.90;99.90;;;;;;4941422;28;20566;-52
2022/04/07 05:23:07;;;;;;;3.80;3.50;;;10.00;99.90;;;;;;4941182;28;20570;-52
2022/04/07 05:25:35;;;;;;;4.20;3.30;;;10.00;99.90;;;;;;4941584;28;20553;-52
2022/04/07 05:28:01;;;;;;;6.70;4.17;;;10.00;99.90;;;;;;4941063;28;20562;-52
2022/04/07 05:30:28;;;;;;;5.67;3.93;;;10.00;99.90;;;;;;4938624;28;20944;-51
2022/04/07 05:32:55;;;;;;;4.23;3.37;;;10.00;99.90;;;;;;4945000;28;20524;-52
2022/04/07 05:35:26;;;;;;;3.77;3.43;;;10.00;99.90;;;;;;4944028;28;20566;-51
2022/04/07 05:37:57;;;;;;;3.47;3.10;;;10.00;99.90;;;;;;4945970;28;20586;-52
2022/04/07 05:40:24;;;;;;;4.13;3.37;;;10.10;99.90;;;;;;4936906;28;20529;-52
2022/04/07 05:42:52;;;;;;;3.40;3.00;;;10.10;99.90;;;;;;4941310;28;20459;-51
2022/04/07 05:45:19;;;;;;;4.50;2.73;;;10.10;99.90;;;;;;4948842;28;20585;-51
2022/04/07 05:47:45;;;;;;;3.70;3.23;;;10.10;99.90;;;;;;4947392;28;20497;-51
2022/04/07 05:50:12;;;;;;;2.70;2.50;;;10.20;99.90;;;;;;4966084;23;20506;-47
2022/04/07 05:52:39;;;;;;;3.43;2.87;;;10.20;99.90;;;;;;4950523;28;21006;-46
2022/04/07 05:55:06;;;;;;;6.33;3.43;;;10.30;99.90;;;;;;4951008;28;20462;-46
2022/04/07 05:57:33;;;;;;;3.00;2.80;;;10.30;95.70;;;;;;4949644;28;20466;-46
2022/04/07 06:00:07;;;;;;;2.93;2.73;;;10.40;91.00;;;;;;4943594;28;21396;-47
2022/04/07 06:02:33;;;;;;;3.10;2.90;;;10.50;22.20;;;;;;4948814;28;20557;-47
2022/04/07 06:05:00;;;;;;;3.13;2.67;;;10.60;23.70;;;;;;4951755;28;20538;-47
2022/04/07 06:07:26;;;;;;;2.80;2.60;;;10.60;25.60;;;;;;4953526;28;20501;-46
2022/04/07 06:09:53;;;;;;;2.80;2.60;;;10.60;27.30;;;;;;4944479;28;20569;-47
2022/04/07 06:12:20;;;;;;;3.03;2.70;;;10.60;31.90;;;;;;4952649;29;20513;-46
2022/04/07 06:14:46;;;;;;;4.70;3.20;;;10.70;30.90;;;;;;4953103;28;20515;-46
2022/04/07 06:17:14;;;;;;;3.70;2.60;;;10.70;33.90;;;;;;4946500;28;21031;-47
2022/04/07 06:19:41;;;;;;;2.57;2.37;;;10.70;34.70;;;;;;4946600;28;20553;-47
2022/04/07 06:22:07;;;;;;;2.00;1.90;;;10.80;35.60;;;;;;4951033;28;20546;-47
2022/04/07 06:24:34;;;;;;;2.90;2.60;;;10.80;40.00;;;;;;4950419;28;20498;-47
2022/04/07 06:27:01;;;;;;;2.40;2.20;;;10.90;40.20;;;;;;4950043;28;20577;-47
2022/04/07 06:29:27;;;;;;;3.30;3.00;;;10.90;41.30;;;;;;4948141;28;20585;-47
2022/04/07 06:31:54;;;;;;;2.40;2.10;;;11.00;41.30;;;;;;4951476;28;20566;-47
2022/04/07 06:34:22;;;;;;;2.83;2.63;;;11.00;41.20;;;;;;4955970;28;20524;-47
2022/04/07 06:36:48;;;;;;;4.93;2.63;;;11.10;45.60;;;;;;4946767;28;20553;-47
2022/04/07 06:39:15;;;;;;;2.47;2.37;;;11.10;44.40;;;;;;4947252;28;20573;-48
2022/04/07 06:41:42;;;;;;;2.27;2.17;;;11.20;47.50;;;;;;4945386;28;20578;-47
2022/04/07 06:44:08;;;;;;;2.70;2.50;;;11.20;50.20;;;;;;4949918;28;20518;-47
2022/04/07 06:46:35;;;;;;;3.03;2.27;;;11.20;51.80;;;;;;4944824;28;20977;-46
2022/04/07 06:49:01;;;;;;;2.10;2.00;;;11.20;51.40;;;;;;4950260;28;20573;-47
2022/04/07 06:51:29;;;;;;;3.70;1.93;;;11.30;51.10;;;;;;4949140;28;20530;-46
2022/04/07 06:53:56;;;;;;;7.63;1.93;;;11.30;53.90;;;;;;4945913;29;20470;-46
2022/04/07 06:56:22;;;;;;;2.13;1.93;;;11.30;54.40;;;;;;4940417;29;20589;-46
2022/04/07 06:58:49;;;;;;;2.03;1.93;;;11.30;54.90;;;;;;4941316;28;22756;-46
2022/04/07 07:01:15;;;;;;;14.93;2.10;;;11.30;55.50;;;;;;4944002;28;21020;-46
2022/04/07 07:03:42;;;;;;;1.80;1.70;;;11.40;57.20;;;;;;4941452;28;20466;-46
2022/04/07 07:06:09;;;;;;;1.97;1.67;;;11.40;56.40;;;;;;4937359;28;20976;-46
2022/04/07 07:08:36;;;;;;;1.77;1.60;;;11.40;58.00;;;;;;4935470;28;20494;-46
2022/04/07 07:11:03;;;;;;;1.70;1.50;;;11.50;57.90;;;;;;4937138;28;20560;-54
2022/04/07 07:13:30;;;;;;;2.20;2.00;;;11.40;59.10;;;;;;4941223;28;20553;-52
2022/04/07 07:15:57;;;;;;;2.63;2.07;;;11.50;54.00;;;;;;4939517;28;20550;-47
2022/04/07 07:18:24;;;;;;;2.63;2.43;;;11.50;54.30;;;;;;4933584;28;20470;-47
2022/04/07 07:20:51;;;;;;;5.53;2.10;;;11.60;59.50;;;;;;4939912;28;20584;-47
2022/04/07 07:23:18;;;;;;;4.10;1.90;;;11.70;59.20;;;;;;4948501;28;20553;-47
2022/04/07 07:25:47;;;;;;;2.80;2.17;;;11.60;62.00;;;;;;4945162;28;20478;-46
2022/04/07 07:28:14;;;;;;;2.50;2.03;;;11.80;60.60;;;;;;4948212;28;20473;-47
2022/04/07 07:30:40;;;;;;;2.07;1.90;;;11.80;68.30;;;;;;4948506;28;20582;-48
2022/04/07 07:33:07;;;;;;;2.80;2.60;;;12.10;70.70;;;;;;4944080;28;20936;-46
2022/04/07 07:35:34;;;;;;;2.20;2.10;;;12.20;77.70;;;;;;4952913;28;20446;-46
2022/04/07 07:38:03;;;;;;;3.00;2.50;;;12.20;83.70;;;;;;4952661;28;20548;-46
2022/04/07 07:40:31;;;;;;;1.93;1.83;;;12.30;85.20;;;;;;4947925;28;21010;-47
2022/04/07 07:43:00;;;;;;;7.67;2.43;;;12.60;90.60;;;;;;4951456;28;20846;-47
2022/04/07 07:45:29;;;;;;;2.27;2.07;;;12.60;95.50;;;;;;4949597;28;20473;-47
2022/04/07 07:47:56;;;;;;;2.00;1.90;;;12.90;99.90;;;;;;4950896;28;20463;-46
2022/04/07 07:50:22;;;;;;;2.33;1.93;;;12.90;99.90;;;;;;4948091;28;20618;-48
2022/04/07 07:52:49;;;;;;;2.03;1.90;;;13.10;99.90;;;;;;4950318;28;21036;-46
2022/04/07 07:55:17;;;;;;;2.20;1.70;;;13.10;99.90;;;;;;4945086;29;20501;-47
2022/04/07 07:57:43;;;;;;;3.40;1.53;;;13.10;99.90;;;;;;4946448;28;20466;-46
2022/04/07 08:00:15;;;;;;;9.50;1.60;;;13.10;99.90;;;;;;4950398;28;20517;-48
2022/04/07 08:02:42;;;;;;;3.13;1.67;;;12.90;99.90;;;;;;4947225;28;20467;-47
2022/04/07 08:05:09;;;;;;;2.27;1.70;;;12.70;99.90;;;;;;4946864;28;20474;-47
2022/04/07 08:07:40;;;;;;;2.77;2.20;;;13.00;99.90;;;;;;4943345;28;20552;-47
2022/04/07 08:10:07;;;;;;;2.97;1.63;;;13.30;99.90;;;;;;4943707;28;20999;-46
2022/04/07 08:12:34;;;;;;;1.20;1.10;;;13.40;99.90;;;;;;4943921;28;20514;-46
2022/04/07 08:15:01;;;;;;;1.13;1.00;;;13.30;99.90;;;;;;4943215;28;20582;-48
2022/04/07 08:17:29;;;;;;;2.60;1.20;;;13.40;99.90;;;;;;4943465;28;20558;-47
2022/04/07 08:19:55;;;;;;;2.20;1.70;;;13.70;99.90;;;;;;4943476;28;20546;-46
2022/04/07 08:22:22;;;;;;;0.83;0.80;;;13.90;99.90;;;;;;4942118;28;20545;-47
2022/04/07 08:24:48;;;;;;;1.20;1.20;;;13.90;99.90;;;;;;4947970;28;20521;-46
2022/04/07 08:27:15;;;;;;;3.47;1.43;;;13.50;99.90;;;;;;4943974;28;20913;-48
2022/04/07 08:29:42;;;;;;;1.67;1.20;;;13.30;99.90;;;;;;4946731;28;20569;-48
2022/04/07 08:32:09;;;;;;;3.00;1.30;;;13.20;99.90;;;;;;4953105;28;20481;-46
2022/04/07 08:34:37;;;;;;;3.23;1.60;;;13.50;99.90;;;;;;4950903;28;20473;-47
2022/04/07 08:37:04;;;;;;;1.40;1.30;;;13.80;99.90;;;;;;4948161;28;20558;-47
2022/04/07 08:39:31;;;;;;;2.20;1.50;;;13.80;99.90;;;;;;4944367;28;22159;-46
2022/04/07 08:41:59;;;;;;;1.53;1.43;;;13.50;99.90;;;;;;4948541;28;21048;-47
2022/04/07 08:44:31;;;;;;;1.13;1.10;;;13.50;99.90;;;;;;4947214;29;20477;-46
2022/04/07 08:46:59;;;;;;;1.43;1.10;;;13.40;99.90;;;;;;4946096;29;20466;-47
2022/04/07 08:49:29;;;;;;;1.17;1.03;;;13.30;99.90;;;;;;4946771;28;20477;-47
2022/04/07 08:51:58;;;;;;;1.23;1.10;;;13.30;99.90;;;;;;4946523;28;20498;-46
2022/04/07 08:54:25;;;;;;;4.57;1.23;;;13.00;99.90;;;;;;4945051;29;20546;-47
2022/04/07 08:56:52;;;;;;;2.70;1.30;;;12.90;99.90;;;;;;4950542;29;20470;-46
2022/04/07 08:59:18;;;;;;;1.10;1.00;;;12.90;99.90;;;;;;4943045;28;20498;-48
2022/04/07 09:01:45;;;;;;;5.40;1.30;;;12.80;99.90;;;;;;4945877;28;21067;-46
2022/04/07 09:04:13;;;;;;;1.20;1.10;;;12.80;99.90;;;;;;4950664;28;21015;-48
2022/04/07 09:06:41;;;;;;;1.10;1.00;;;13.00;99.90;;;;;;4951479;28;20470;-48
2022/04/07 09:09:16;;;;;;;0.83;0.83;;;13.10;99.90;;;;;;4946730;29;20477;-47
2022/04/07 09:11:43;;;;;;;1.00;1.00;;;13.20;99.90;;;;;;4949174;28;20521;-47
2022/04/07 09:14:11;;;;;;;2.20;0.90;;;13.20;99.90;;;;;;4949178;28;20472;-47
2022/04/07 09:16:39;;;;;;;5.13;1.00;;;13.10;99.90;;;;;;4948950;28;20589;-48
2022/04/07 09:19:06;;;;;;;1.10;1.00;;;13.10;99.90;;;;;;4951785;28;20461;-46
2022/04/07 09:21:34;;;;;;;1.33;1.00;;;13.10;99.90;;;;;;4947355;28;20485;-46
2022/04/07 09:24:05;;;;;;;0.87;0.87;;;13.00;99.90;;;;;;4943497;29;20490;-47
2022/04/07 09:26:35;;;;;;;1.10;1.00;;;13.10;99.90;;;;;;4952233;29;20553;-46
2022/04/07 09:29:08;;;;;;;1.00;0.93;;;13.20;99.90;;;;;;4950615;28;20486;-46
2022/04/07 09:31:38;;;;;;;1.50;1.40;;;13.30;99.90;;;;;;4947218;28;20496;-48
2022/04/07 09:34:05;;;;;;;1.00;1.00;;;13.20;99.90;;;;;;4947847;29;20486;-47
2022/04/07 09:36:32;;;;;;;2.33;1.10;;;13.30;99.90;;;;;;4949790;29;20510;-46
2022/04/07 09:39:00;;;;;;;1.20;0.97;;;13.80;99.90;;;;;;4947265;28;21015;-48
2022/04/07 09:41:29;;;;;;;0.83;0.83;;;14.20;99.90;;;;;;4958681;28;20493;-47
2022/04/07 09:43:59;;;;;;;0.90;0.90;;;14.00;99.90;;;;;;4946803;28;20545;-47
2022/04/07 09:46:27;;;;;;;0.90;0.90;;;14.00;99.90;;;;;;4951315;28;20978;-47
2022/04/07 09:49:03;;;;;;;1.10;0.97;;;14.00;99.90;;;;;;4948550;28;20991;-48
2022/04/07 09:51:30;;;;;;;0.97;0.97;;;14.40;99.90;;;;;;4945027;28;20553;-46
2022/04/07 09:53:58;;;;;;;2.60;0.90;;;14.50;99.90;;;;;;4952233;29;21030;-46
2022/04/07 09:56:29;;;;;;;0.80;0.80;;;14.20;99.90;;;;;;4949925;28;20497;-47
2022/04/07 09:58:57;;;;;;;3.17;0.90;;;13.80;99.90;;;;;;4952118;28;20549;-46
2022/04/07 10:01:24;;;;;;;0.80;0.80;;;13.60;99.90;;;;;;4945282;28;20562;-47
2022/04/07 10:03:51;;;;;;;0.93;0.93;;;13.50;99.90;;;;;;4952434;29;20446;-47
2022/04/07 10:06:19;;;;;;;1.90;0.90;;;13.70;99.90;;;;;;4945493;28;20494;-46
2022/04/07 10:08:49;;;;;;;0.67;0.67;;;13.80;99.90;;;;;;4952468;28;20485;-47
2022/04/07 10:11:16;;;;;;;0.77;0.77;;;13.90;99.90;;;;;;4950665;28;20485;-47
2022/04/07 10:13:44;;;;;;;0.70;0.70;;;13.90;99.90;;;;;;4950409;28;20469;-48
2022/04/07 10:16:12;;;;;;;1.00;0.70;;;13.90;99.90;;;;;;4954927;28;20466;-46
2022/04/07 10:18:46;;;;;;;2.43;1.87;;;13.90;99.90;;;;;;4952219;29;20553;-47
2022/04/07 10:21:30;;;;;;;1.23;0.90;;;13.80;99.90;;;;;;4950187;28;20509;-47
2022/04/07 10:24:12;;;;;;;7.93;0.80;;;13.80;99.90;;;;;;4949751;29;21007;-47
2022/04/07 10:26:42;;;;;;;0.80;0.80;;;13.70;99.90;;;;;;4953067;28;20955;-46
2022/04/07 10:29:20;;;;;;;0.80;0.73;;;13.50;99.90;;;;;;4949458;28;20548;-46
2022/04/07 10:32:19;;;;;;;3.37;0.70;;;13.50;99.90;;;;;;4951609;28;20493;-48
2022/04/07 10:34:54;;;;;;;0.80;0.70;;;13.50;99.90;;;;;;4952131;29;20459;-47
2022/04/07 10:37:30;;;;;;;0.80;0.80;;;13.50;99.90;;;;;;4941291;28;20549;-46
2022/04/07 10:39:56;;;;;;;1.80;0.77;;;13.40;99.90;;;;;;4953576;28;20553;-47
2022/04/07 10:42:59;;;;;;;1.13;1.00;;;13.50;99.90;;;;;;4947745;28;20462;-46
2022/04/07 10:45:31;;;;;;;0.97;0.87;;;13.50;99.90;;;;;;4940233;28;20553;-47
2022/04/07 10:48:24;;;;;;;1.43;0.83;;;13.50;99.90;;;;;;4948015;29;21186;-47
2022/04/07 10:50:52;;;;;;;1.23;0.87;;;13.30;99.90;;;;;;4950250;28;20500;-47
2022/04/07 10:53:21;;;;;;;2.00;1.20;;;13.00;99.90;;;;;;4952569;28;20497;-47
2022/04/07 10:55:55;;;;;;;1.97;0.90;;;12.70;94.40;;;;;;4952111;28;20467;-47
2022/04/07 10:58:24;;;;;;;1.47;1.17;;;12.40;54.90;;;;;;4950886;28;20548;-47
2022/04/07 11:00:51;;;;;;;0.97;0.93;;;12.30;57.40;;;;;;4951304;28;20856;-46
2022/04/07 11:03:19;;;;;;;0.87;0.87;;;12.30;67.80;;;;;;4948964;29;20493;-47
2022/04/07 11:05:54;;;;;;;1.10;1.10;;;12.40;76.60;;;;;;4948646;28;20458;-47
2022/04/07 11:08:23;;;;;;;1.97;1.40;;;12.30;58.10;;;;;;4944726;28;20462;-48
2022/04/07 11:10:52;;;;;;;1.10;0.90;;;12.30;56.50;;;;;;4943366;28;20588;-47
2022/04/07 11:13:39;;;;;;;1.00;0.87;;;12.50;80.90;;;;;;4953554;28;20466;-48
2022/04/07 11:16:17;;;;;;;3.73;1.70;;;12.50;76.80;;;;;;4945877;28;20549;-48
2022/04/07 11:19:07;;;;;;;0.70;0.70;;;12.50;82.50;;;;;;4950286;28;20549;-47
2022/04/07 11:21:44;;;;;;;1.10;1.00;;;12.60;84.50;;;;;;4953891;28;20544;-48
2022/04/07 11:24:16;;;;;;;1.50;1.13;;;12.50;78.50;;;;;;4952825;28;20465;-47
2022/04/07 11:26:43;;;;;;;2.40;0.80;;;12.50;66.10;;;;;;4947761;28;20474;-47
2022/04/07 11:29:12;;;;;;;0.93;0.87;;;12.50;71.10;;;;;;4947723;29;20574;-47
2022/04/07 11:31:49;;;;;;;1.13;0.97;;;12.50;62.50;;;;;;4947754;28;20486;-47
2022/04/07 11:34:41;;;;;;;1.13;1.03;;;12.50;67.10;;;;;;4951054;28;20537;-47
2022/04/07 11:37:08;;;;;;;0.93;0.93;;;12.50;68.50;;;;;;4944297;28;20514;-47
2022/04/07 11:39:35;;;;;;;1.73;1.40;;;12.50;66.70;;;;;;4949822;28;20530;-47
2022/04/07 11:42:02;;;;;;;0.63;0.63;;;12.40;31.40;;;;;;4951012;28;20481;-47
2022/04/07 11:44:28;;;;;;;6.93;1.23;;;12.10;99.90;;;;;;4948726;28;20469;-48
2022/04/07 11:47:00;;;;;;;1.17;0.90;;;11.80;99.90;;;;;;4949530;28;20462;-47
2022/04/07 11:49:27;;;;;;;2.00;1.70;;;11.70;99.90;;;;;;4947637;28;20558;-47
2022/04/07 11:51:54;;;;;;;1.00;1.00;;;11.50;99.90;;;;;;4952656;28;20494;-47
2022/04/07 11:54:21;;;;;;;0.90;0.83;;;11.60;99.90;;;;;;4952103;28;20497;-48
2022/04/07 11:56:49;;;;;;;0.80;0.80;;;11.40;99.90;;;;;;4947650;28;20466;-48
2022/04/07 11:59:16;;;;;;;2.70;0.80;;;11.20;99.90;;;;;;4946901;28;20561;-48
2022/04/07 12:01:45;;;;;;;10.63;1.10;;;11.10;99.90;;;;;;4947827;28;20478;-46
2022/04/07 12:04:15;;;;;;;1.10;1.00;;;11.00;99.90;;;;;;4945380;28;20470;-47
2022/04/07 12:06:44;;;;;;;1.10;0.97;;;10.90;99.90;;;;;;4945980;28;22329;-47
2022/04/07 12:09:10;;;;;;;1.07;0.97;;;10.90;97.70;;;;;;4949319;29;20989;-47
2022/04/07 12:11:39;;;;;;;0.90;0.90;;;10.70;60.00;;;;;;4947392;28;20498;-46
2022/04/07 12:14:08;;;;;;;1.10;1.10;;;10.60;50.70;;;;;;4947711;28;20553;-47
2022/04/07 12:16:35;;;;;;;1.23;1.13;;;10.60;30.40;;;;;;4955971;28;20505;-48
2022/04/07 12:19:04;;;;;;;1.10;1.10;;;10.40;99.90;;;;;;4947046;28;20525;-48
2022/04/07 12:21:52;;;;;;;0.77;0.77;;;10.40;99.90;;;;;;4947290;28;20565;-48
2022/04/07 12:24:20;;;;;;;1.47;1.37;;;10.40;99.90;;;;;;4941008;28;20470;-48
2022/04/07 12:26:48;;;;;;;0.90;0.90;;;10.30;99.90;;;;;;4949282;28;20894;-46
2022/04/07 12:29:15;;;;;;;1.37;1.30;;;10.30;99.90;;;;;;4945595;28;20550;-46
2022/04/07 12:31:42;;;;;;;1.57;1.00;;;10.50;36.20;;;;;;4947497;28;20589;-47
2022/04/07 12:34:11;;;;;;;0.77;0.77;;;10.70;72.90;;;;;;4955616;28;20528;-46
2022/04/07 12:36:39;;;;;;;1.80;0.90;;;10.80;52.90;;;;;;4945163;28;20467;-47
2022/04/07 12:39:09;;;;;;;0.87;0.87;;;10.90;66.80;;;;;;4941926;28;20549;-46
2022/04/07 12:41:38;;;;;;;1.23;1.13;;;11.00;99.90;;;;;;4946593;28;20495;-47
2022/04/07 12:44:05;;;;;;;1.90;1.77;;;11.00;99.90;;;;;;4947395;28;20545;-48
2022/04/07 12:46:44;;;;;;;1.37;1.00;;;11.00;93.50;;;;;;4945420;28;20530;-48
2022/04/07 12:49:11;;;;;;;1.20;1.10;;;11.00;70.20;;;;;;4945791;28;20557;-47
2022/04/07 12:51:38;;;;;;;0.80;0.80;;;11.00;76.40;;;;;;4950105;28;21193;-48
2022/04/07 12:54:11;;;;;;;1.23;1.07;;;11.00;98.50;;;;;;4944266;28;20561;-48
2022/04/07 12:56:39;;;;;;;0.90;0.90;;;11.00;80.90;;;;;;4947504;28;20458;-47
2022/04/07 12:59:08;;;;;;;1.37;1.27;;;11.00;87.50;;;;;;4943832;28;21051;-48